map of URE home
URE - Airport
Location
City:  Kuressaare, Estonia
ICAO:EEKE
IATA:URE

Details
Type:Airport (Aerodrome, Airfield)
Latitude:5813'48"N (58.229883)
Longitude:2230'34"E (22.509494)
Datum:WGS 1984
Elevation:14 ft (4 m)
Variation:7.64E (WMM2015 magnetic declination)
0.15 annual change
Runways:2
Longest:4980 × 98 ft (1518 × 30 m), paved

Time
Time Zone:UTC+2 (DST+3)
Local Time:

Weather
METAR:EEKE 170850Z 19010KT 9999 OVC013 M00/M02 Q1023 R17/820195

Related Locations
Nearby:
Farthest:CHT: 11147 mi / 17940 km
Waitangi [Tuuta], CIT, NZ

Find:

   beyond  
but within

Other Information
Maps:
NOTAMs:
Links:
Sources:

  
  • flag of Estonia
  

Sectional Chart

Flight Planning
at skyvector.com

Satellite Image

Google Maps Satellite view

 

Copyright © 2004-2018 Karl L. Swartz. All rights reserved.
The Great Circle Mapper name and logo are trademarks of the Great Circle Mapper.
All other trademarks mentioned herein belong to their respective owners.
Please see credits for attibutions and further copyright information.

  Follow gcmap on Facebook Follow gcmap on Twitter Follow gcmap on Google+ GCmap on LinkedIn

hCard Microformat

Geo Microformat